Regan, North Dakota
Current Conditions -  °F | °C
As of 7:52 AM on Friday 31 Oct 2014 (Local Time) from KBIS Reporting Station
Clear Clear  
Wind Chill:   Ceiling: Unl
Heat Index: 13°   Visibility: 10mi
Dew Point: 11°   Wind: 7mph
Humidity: 92%   Direction: 130°SE
Pressure: 30.53"   Gusts: NA
Location:  47.16°N, 100.53°W
Report Text: KBIS 311252Z 13006KT 10SM CLR M11/M12 A3053 RMK AO2 SLP367 T11061117
Loading
Personal Weather Stations






























Interactive Weather Map New forecast layout! Learn more

10-Day Weather Forecast

Advertisements
Track Severe Weather on mobile